createdAt,value
2023-05-19T00:00:25.495Z,6.78
2023-05-19T00:05:28.122Z,6.65
2023-05-19T00:10:31.748Z,6.49
2023-05-19T00:15:33.516Z,6.46
2023-05-19T00:20:35.080Z,6.38
2023-05-19T00:25:36.481Z,6.27
2023-05-19T00:30:37.830Z,6.15
2023-05-19T00:35:40.630Z,5.99
2023-05-19T00:40:42.145Z,5.87
2023-05-19T00:45:43.520Z,5.80
2023-05-19T00:50:45.583Z,5.67
2023-05-19T00:55:47.683Z,5.64
2023-05-19T01:00:49.893Z,5.61
2023-05-19T01:05:53.734Z,5.59
2023-05-19T01:10:55.328Z,5.45
2023-05-19T01:16:01.588Z,5.37
2023-05-19T01:21:26.149Z,5.27
2023-05-19T01:26:27.449Z,5.08
2023-05-19T01:31:28.926Z,5.01
2023-05-19T01:36:31.943Z,4.94
2023-05-19T01:41:34.571Z,4.87
2023-05-19T01:46:36.414Z,4.79
2023-05-19T01:51:38.092Z,4.82
2023-05-19T01:56:47.130Z,4.76
2023-05-19T02:01:48.495Z,4.63
2023-05-19T02:06:49.993Z,4.61
2023-05-19T02:11:51.297Z,4.53
2023-05-19T02:16:53.236Z,4.48
2023-05-19T02:21:54.876Z,4.38
2023-05-19T02:26:56.231Z,4.31
2023-05-19T02:31:58.834Z,4.30
2023-05-19T02:37:01.237Z,4.25
2023-05-19T02:42:02.677Z,4.35
2023-05-19T02:47:04.181Z,4.33
2023-05-19T02:52:05.822Z,4.31
2023-05-19T02:57:07.981Z,4.17
2023-05-19T03:02:09.362Z,4.09
2023-05-19T03:07:11.047Z,4.00
2023-05-19T03:12:12.537Z,3.94
2023-05-19T03:17:13.922Z,3.94
2023-05-19T03:22:15.422Z,3.91
2023-05-19T03:27:16.795Z,3.89
2023-05-19T03:32:18.207Z,3.87
2023-05-19T03:37:19.564Z,3.74
2023-05-19T03:42:21.119Z,3.72
2023-05-19T03:47:22.552Z,3.81
2023-05-19T03:52:23.889Z,3.84
2023-05-19T03:57:25.335Z,3.92
2023-05-19T04:02:26.802Z,3.93
2023-05-19T04:07:28.207Z,3.91
2023-05-19T04:12:29.585Z,3.94
2023-05-19T04:17:31.325Z,4.46
2023-05-19T04:22:32.784Z,4.94
2023-05-19T04:27:36.632Z,5.09
2023-05-19T04:32:39.598Z,4.84
2023-05-19T04:37:41.127Z,4.72
2023-05-19T04:42:42.819Z,4.82
2023-05-19T04:47:44.493Z,4.89
2023-05-19T04:52:45.901Z,5.00
2023-05-19T04:57:47.355Z,5.22
2023-05-19T05:02:49.109Z,5.43
2023-05-19T05:07:50.810Z,5.66
2023-05-19T05:12:52.352Z,5.88
2023-05-19T05:17:53.870Z,6.12
2023-05-19T05:22:55.829Z,6.41
2023-05-19T05:27:58.908Z,6.92
2023-05-19T05:33:00.749Z,8.65
2023-05-19T05:38:02.434Z,11.61
2023-05-19T05:43:03.828Z,13.48
2023-05-19T05:48:05.536Z,14.65
2023-05-19T05:53:07.954Z,15.94
2023-05-19T05:58:11.174Z,15.28
2023-05-19T06:03:13.451Z,13.36
2023-05-19T06:08:15.166Z,15.76
2023-05-19T06:13:22.252Z,15.32
2023-05-19T06:18:23.695Z,13.93
2023-05-19T06:23:26.769Z,14.74
2023-05-19T06:28:28.155Z,16.31
2023-05-19T06:33:29.569Z,17.38
2023-05-19T06:38:31.489Z,18.49
2023-05-19T06:43:32.842Z,19.17
2023-05-19T06:48:34.216Z,19.27
2023-05-19T06:53:35.744Z,19.38
2023-05-19T06:58:37.141Z,19.60
2023-05-19T07:03:38.719Z,18.00
2023-05-19T07:08:40.226Z,19.74
2023-05-19T07:13:42.061Z,19.67
2023-05-19T07:18:43.437Z,20.57
2023-05-19T07:23:44.936Z,17.98
2023-05-19T07:28:46.307Z,19.17
2023-05-19T07:33:47.662Z,19.73
2023-05-19T07:38:49.093Z,23.14
2023-05-19T07:43:50.468Z,22.05
2023-05-19T07:48:51.878Z,25.08
2023-05-19T07:53:53.238Z,22.71
2023-05-19T07:58:54.629Z,21.06
2023-05-19T08:03:56.055Z,23.87
2023-05-19T08:08:57.471Z,23.73
2023-05-19T08:13:58.972Z,21.09
2023-05-19T08:19:02.752Z,24.67
2023-05-19T08:24:04.405Z,24.78
2023-05-19T08:29:05.880Z,22.15
2023-05-19T08:34:07.332Z,24.81
2023-05-19T08:39:08.714Z,22.69
2023-05-19T08:44:10.144Z,22.96
2023-05-19T08:49:13.014Z,25.01
2023-05-19T08:54:15.762Z,27.07
2023-05-19T08:59:17.405Z,22.97
2023-05-19T09:04:19.594Z,25.93
2023-05-19T09:09:22.222Z,26.53
2023-05-19T09:14:23.943Z,25.72
2023-05-19T09:19:28.803Z,26.91
2023-05-19T09:24:30.263Z,27.60
2023-05-19T09:29:31.944Z,27.10
2023-05-19T09:34:33.293Z,25.29
2023-05-19T09:39:34.931Z,21.97
2023-05-19T09:44:36.298Z,22.77
2023-05-19T09:49:38.643Z,21.66
2023-05-19T09:54:40.349Z,22.38
2023-05-19T09:59:42.302Z,25.08
2023-05-19T10:04:43.910Z,26.89
2023-05-19T10:09:45.998Z,24.08
2023-05-19T10:14:47.765Z,24.82
2023-05-19T10:19:49.552Z,27.10
2023-05-19T10:24:50.962Z,27.67
2023-05-19T10:29:54.359Z,27.89
2023-05-19T10:35:09.167Z,24.54
2023-05-19T10:40:16.958Z,27.43
2023-05-19T10:45:22.527Z,26.27
2023-05-19T10:50:23.984Z,27.65
2023-05-19T10:55:44.109Z,27.34
2023-05-19T11:00:45.546Z,27.34
2023-05-19T11:05:50.030Z,27.59
2023-05-19T11:10:51.984Z,27.07
2023-05-19T11:15:53.488Z,26.93
2023-05-19T11:21:00.799Z,27.86
2023-05-19T11:26:02.575Z,27.33
2023-05-19T11:31:07.994Z,26.73
2023-05-19T11:36:10.798Z,25.88
2023-05-19T11:41:15.565Z,25.76
2023-05-19T11:46:17.959Z,24.96
2023-05-19T11:51:21.058Z,23.56
2023-05-19T11:56:22.472Z,23.98
2023-05-19T12:01:26.897Z,24.89
2023-05-19T12:06:29.171Z,23.88
2023-05-19T12:11:31.755Z,23.46
2023-05-19T12:16:34.599Z,23.22
2023-05-19T12:21:36.175Z,24.20
2023-05-19T12:26:37.595Z,23.22
2023-05-19T12:31:39.140Z,23.99
2023-05-19T12:36:41.178Z,23.46
2023-05-19T12:41:44.763Z,23.75
2023-05-19T12:46:46.288Z,23.91
2023-05-19T12:51:54.057Z,23.81
2023-05-19T12:56:57.499Z,23.62
2023-05-19T13:01:59.097Z,23.55
2023-05-19T13:07:00.548Z,23.33
2023-05-19T13:12:02.326Z,23.42
2023-05-19T13:17:04.046Z,23.93
2023-05-19T13:22:05.475Z,23.48
2023-05-19T13:27:06.957Z,24.04
2023-05-19T13:32:08.619Z,24.24
2023-05-19T13:37:11.443Z,23.40
2023-05-19T13:42:12.921Z,22.44
2023-05-19T13:47:14.354Z,23.16
2023-05-19T13:52:15.755Z,23.65
2023-05-19T13:57:17.124Z,23.49
2023-05-19T14:02:19.118Z,23.82
2023-05-19T14:07:21.170Z,23.64
2023-05-19T14:12:27.632Z,23.45
2023-05-19T14:17:36.121Z,23.65
2023-05-19T14:22:37.550Z,23.35
2023-05-19T14:27:40.116Z,23.49
2023-05-19T14:32:41.980Z,24.03
2023-05-19T14:37:43.617Z,24.31
2023-05-19T14:42:44.973Z,23.84
2023-05-19T14:47:47.738Z,23.27
2023-05-19T14:52:49.415Z,22.94
2023-05-19T14:57:50.869Z,22.54
2023-05-19T15:02:52.851Z,22.43
2023-05-19T15:07:54.233Z,22.71
2023-05-19T15:12:57.554Z,22.79
2023-05-19T15:17:58.973Z,23.18
2023-05-19T15:23:00.490Z,22.87
2023-05-19T15:28:01.970Z,22.48
2023-05-19T15:33:03.367Z,22.41
2023-05-19T15:38:06.317Z,22.45
2023-05-19T15:43:07.699Z,22.15
2023-05-19T15:48:09.097Z,22.28
2023-05-19T15:53:10.649Z,21.75
2023-05-19T15:58:13.735Z,21.63
2023-05-19T16:03:15.282Z,21.65
2023-05-19T16:08:16.737Z,21.66
2023-05-19T16:13:18.555Z,21.67
2023-05-19T16:18:19.984Z,21.34
2023-05-19T16:23:21.424Z,21.24
2023-05-19T16:28:24.911Z,21.21
2023-05-19T16:33:28.332Z,21.23
2023-05-19T16:38:29.699Z,21.22
2023-05-19T16:43:33.413Z,20.94
2023-05-19T16:48:34.782Z,20.52
2023-05-19T16:53:36.146Z,20.39
2023-05-19T16:58:37.547Z,20.50
2023-05-19T17:03:39.042Z,20.51
2023-05-19T17:08:40.575Z,20.37
2023-05-19T17:13:43.829Z,20.24
2023-05-19T17:18:45.308Z,20.24
2023-05-19T17:23:46.746Z,20.20
2023-05-19T17:28:48.501Z,20.21
2023-05-19T17:33:50.151Z,20.12
2023-05-19T17:38:51.518Z,19.93
2023-05-19T17:43:53.038Z,19.74
2023-05-19T17:48:54.378Z,19.56
2023-05-19T17:53:55.913Z,19.55
2023-05-19T17:58:57.466Z,19.58
2023-05-19T18:03:59.022Z,19.31
2023-05-19T18:09:01.198Z,19.24
2023-05-19T18:14:02.697Z,19.12
2023-05-19T18:19:04.105Z,19.00
2023-05-19T18:24:05.934Z,19.00
2023-05-19T18:29:10.961Z,18.88
2023-05-19T18:34:13.901Z,18.69
2023-05-19T18:39:15.301Z,18.56
2023-05-19T18:44:16.752Z,18.39
2023-05-19T18:49:18.344Z,18.18
2023-05-19T18:54:21.612Z,18.07
2023-05-19T18:59:24.457Z,17.84
2023-05-19T19:04:25.846Z,17.57
2023-05-19T19:09:27.222Z,17.27
2023-05-19T19:14:28.601Z,16.99
2023-05-19T19:19:30.556Z,16.83
2023-05-19T19:24:32.205Z,16.59
2023-05-19T19:29:33.541Z,16.22
2023-05-19T19:34:34.871Z,16.25
2023-05-19T19:39:36.225Z,16.13
2023-05-19T19:44:37.582Z,15.70
2023-05-19T19:49:38.957Z,15.23
2023-05-19T19:54:40.370Z,14.85
2023-05-19T19:59:41.714Z,14.55
2023-05-19T20:04:43.107Z,14.31
2023-05-19T20:09:44.629Z,14.21
2023-05-19T20:14:46.584Z,14.05
2023-05-19T20:19:48.174Z,13.88
2023-05-19T20:24:49.505Z,13.67
2023-05-19T20:29:50.973Z,13.35
2023-05-19T20:34:52.353Z,13.25
2023-05-19T20:39:53.722Z,13.22
2023-05-19T20:44:55.108Z,13.16
2023-05-19T20:49:56.461Z,13.16
2023-05-19T20:54:57.821Z,12.96
2023-05-19T20:59:59.381Z,12.91
2023-05-19T21:05:01.031Z,12.60
2023-05-19T21:10:02.506Z,12.60
2023-05-19T21:15:05.937Z,12.55
2023-05-19T21:20:07.775Z,12.46
2023-05-19T21:25:09.227Z,12.55
2023-05-19T21:30:11.070Z,12.53
2023-05-19T21:35:12.434Z,12.44
2023-05-19T21:40:13.758Z,12.37
2023-05-19T21:45:15.174Z,12.32
2023-05-19T21:50:17.430Z,12.27
2023-05-19T21:55:18.776Z,12.24
2023-05-19T22:00:20.196Z,12.24
2023-05-19T22:05:21.895Z,12.23
2023-05-19T22:10:23.309Z,12.15
2023-05-19T22:15:24.679Z,12.12
2023-05-19T22:20:26.012Z,12.01
2023-05-19T22:25:27.685Z,11.89
2023-05-19T22:30:29.119Z,11.77
2023-05-19T22:35:30.472Z,11.62
2023-05-19T22:40:32.510Z,11.49
2023-05-19T22:45:35.350Z,11.24
2023-05-19T22:50:36.934Z,11.04
2023-05-19T22:55:38.330Z,10.85
2023-05-19T23:00:39.692Z,10.70
2023-05-19T23:05:41.443Z,10.60
2023-05-19T23:10:42.804Z,10.48
2023-05-19T23:15:44.181Z,10.39
2023-05-19T23:20:45.754Z,10.27
2023-05-19T23:25:47.088Z,10.19
2023-05-19T23:30:48.422Z,10.15
2023-05-19T23:35:49.800Z,10.06
2023-05-19T23:40:51.179Z,10.03
2023-05-19T23:45:52.603Z,10.02
2023-05-19T23:50:53.963Z,9.99
2023-05-19T23:55:56.458Z,9.89
